createdAt,value
2018-09-01T00:01:56.132Z,16.49
2018-09-01T00:04:25.070Z,16.49
2018-09-01T00:06:53.812Z,16.49
2018-09-01T00:09:22.440Z,16.47
2018-09-01T00:11:51.112Z,16.46
2018-09-01T00:14:19.660Z,16.44
2018-09-01T00:16:48.344Z,16.43
2018-09-01T00:19:17.013Z,16.42
2018-09-01T00:21:45.695Z,16.41
2018-09-01T00:24:14.339Z,16.40
2018-09-01T00:26:44.156Z,16.38
2018-09-01T00:29:12.811Z,16.36
2018-09-01T00:31:41.434Z,16.34
2018-09-01T00:34:09.933Z,16.31
2018-09-01T00:36:38.523Z,16.30
2018-09-01T00:39:08.390Z,16.29
2018-09-01T00:41:37.467Z,16.24
2018-09-01T00:44:06.082Z,16.17
2018-09-01T00:46:35.089Z,16.13
2018-09-01T00:49:03.706Z,16.09
2018-09-01T00:51:32.296Z,16.09
2018-09-01T00:54:00.819Z,16.10
2018-09-01T00:56:29.368Z,16.10
2018-09-01T00:58:57.917Z,16.09
2018-09-01T01:01:26.527Z,16.08
2018-09-01T01:03:55.183Z,16.08
2018-09-01T01:06:23.758Z,16.06
2018-09-01T01:08:52.407Z,16.06
2018-09-01T01:11:21.060Z,16.03
2018-09-01T01:13:49.613Z,16.01
2018-09-01T01:16:18.149Z,16.00
2018-09-01T01:18:46.743Z,15.94
2018-09-01T01:21:15.383Z,15.87
2018-09-01T01:23:44.229Z,15.85
2018-09-01T01:26:12.863Z,15.83
2018-09-01T01:28:41.387Z,15.80
2018-09-01T01:31:09.929Z,15.76
2018-09-01T01:33:38.970Z,15.74
2018-09-01T01:36:07.519Z,15.72
2018-09-01T01:38:36.058Z,15.71
2018-09-01T01:41:04.675Z,15.68
2018-09-01T01:43:33.239Z,15.66
2018-09-01T01:46:01.830Z,15.66
2018-09-01T01:48:30.428Z,15.65
2018-09-01T01:50:59.071Z,15.65
2018-09-01T01:53:28.612Z,15.63
2018-09-01T01:55:57.209Z,15.62
2018-09-01T01:58:25.837Z,15.58
2018-09-01T02:00:54.469Z,15.57
2018-09-01T02:03:23.085Z,15.53
2018-09-01T02:05:51.717Z,15.53
2018-09-01T02:08:20.225Z,15.50
2018-09-01T02:10:48.767Z,15.50
2018-09-01T02:13:17.335Z,15.48
2018-09-01T02:15:45.882Z,15.46
2018-09-01T02:18:14.379Z,15.42
2018-09-01T02:20:42.923Z,15.40
2018-09-01T02:23:11.476Z,15.38
2018-09-01T02:25:40.003Z,15.35
2018-09-01T02:28:08.587Z,15.36
2018-09-01T02:30:37.233Z,15.34
2018-09-01T02:33:05.794Z,15.35
2018-09-01T02:35:34.397Z,15.32
2018-09-01T02:38:02.968Z,15.30
2018-09-01T02:40:31.503Z,15.28
2018-09-01T02:43:00.111Z,15.23
2018-09-01T02:45:29.208Z,15.21
2018-09-01T02:47:57.717Z,15.18
2018-09-01T02:50:26.214Z,15.16
2018-09-01T02:52:54.752Z,15.09
2018-09-01T02:55:23.325Z,15.09
2018-09-01T02:57:51.926Z,15.06
2018-09-01T03:00:25.662Z,15.03
2018-09-01T03:02:54.307Z,15.02
2018-09-01T03:05:22.901Z,15.02
2018-09-01T03:07:51.483Z,15.03
2018-09-01T03:10:20.065Z,15.03
2018-09-01T03:12:48.630Z,14.98
2018-09-01T03:15:17.180Z,14.97
2018-09-01T03:17:46.137Z,14.95
2018-09-01T03:20:15.027Z,14.93
2018-09-01T03:22:43.818Z,14.88
2018-09-01T03:25:12.655Z,14.86
2018-09-01T03:27:41.561Z,14.82
2018-09-01T03:30:10.226Z,14.81
2018-09-01T03:32:39.050Z,14.78
2018-09-01T03:35:07.854Z,14.75
2018-09-01T03:37:36.948Z,14.75
2018-09-01T03:40:06.465Z,14.41
2018-09-01T03:42:35.255Z,14.72
2018-09-01T03:45:04.177Z,14.67
2018-09-01T03:47:32.806Z,14.66
2018-09-01T03:50:01.514Z,14.66
2018-09-01T03:52:30.317Z,14.62
2018-09-01T03:54:59.201Z,14.62
2018-09-01T03:57:28.169Z,14.58
2018-09-01T03:59:57.038Z,14.56
2018-09-01T04:02:25.669Z,14.53
2018-09-01T04:04:54.442Z,14.50
2018-09-01T04:07:23.307Z,14.50
2018-09-01T04:09:52.070Z,14.50
2018-09-01T04:12:20.805Z,14.48
2018-09-01T04:14:49.444Z,14.47
2018-09-01T04:17:18.085Z,14.47
2018-09-01T04:19:46.748Z,14.46
2018-09-01T04:22:15.533Z,14.46
2018-09-01T04:24:44.215Z,14.46
2018-09-01T04:27:13.038Z,14.47
2018-09-01T04:29:41.731Z,14.47
2018-09-01T04:32:10.568Z,14.47
2018-09-01T04:34:39.180Z,14.43
2018-09-01T04:37:07.834Z,14.39
2018-09-01T04:39:36.520Z,14.36
2018-09-01T04:42:05.169Z,14.34
2018-09-01T04:44:33.937Z,14.32
2018-09-01T04:47:02.858Z,14.28
2018-09-01T04:49:31.446Z,14.26
2018-09-01T04:52:00.066Z,14.24
2018-09-01T04:54:28.945Z,14.25
2018-09-01T04:56:57.647Z,14.26
2018-09-01T04:59:26.611Z,14.24
2018-09-01T05:01:55.331Z,14.27
2018-09-01T05:04:24.247Z,14.28
2018-09-01T05:06:53.168Z,14.29
2018-09-01T05:09:22.057Z,14.33
2018-09-01T05:11:50.910Z,14.36
2018-09-01T05:14:19.661Z,14.38
2018-09-01T05:16:48.767Z,14.40
2018-09-01T05:19:17.879Z,14.40
2018-09-01T05:21:46.660Z,14.39
2018-09-01T05:24:15.504Z,12.24
2018-09-01T05:26:44.335Z,14.38
2018-09-01T05:29:13.078Z,14.42
2018-09-01T05:31:42.040Z,14.47
2018-09-01T05:34:11.101Z,14.51
2018-09-01T05:36:40.148Z,14.54
2018-09-01T05:39:09.656Z,14.59
2018-09-01T05:41:38.849Z,14.67
2018-09-01T05:44:07.732Z,14.73
2018-09-01T05:46:36.488Z,14.79
2018-09-01T05:49:05.205Z,14.87
2018-09-01T05:51:34.025Z,14.93
2018-09-01T05:54:03.468Z,14.99
2018-09-01T05:56:32.260Z,15.08
2018-09-01T05:59:01.357Z,15.16
2018-09-01T06:01:30.217Z,15.24
2018-09-01T06:03:59.375Z,15.28
2018-09-01T06:06:28.171Z,15.38
2018-09-01T06:08:56.955Z,15.52
2018-09-01T06:11:25.570Z,15.85
2018-09-01T06:16:33.900Z,17.01
2018-09-01T06:19:02.772Z,17.62
2018-09-01T06:21:31.403Z,18.23
2018-09-01T06:24:00.055Z,18.83
2018-09-01T06:26:28.747Z,19.35
2018-09-01T06:29:13.731Z,19.91
2018-09-01T06:31:59.912Z,20.49
2018-09-01T06:34:28.574Z,21.05
2018-09-01T06:36:57.136Z,21.50
2018-09-01T06:39:25.703Z,21.96
2018-09-01T06:41:54.516Z,22.43
2018-09-01T06:44:23.212Z,22.89
2018-09-01T06:46:51.806Z,23.38
2018-09-01T06:49:20.583Z,23.83
2018-09-01T06:51:49.221Z,24.23
2018-09-01T06:54:17.880Z,24.64
2018-09-01T06:56:46.555Z,25.06
2018-09-01T06:59:15.163Z,25.43
2018-09-01T07:01:43.639Z,25.82
2018-09-01T07:04:12.136Z,26.26
2018-09-01T07:06:40.640Z,26.64
2018-09-01T07:09:09.595Z,26.98
2018-09-01T07:11:38.174Z,27.31
2018-09-01T07:14:06.826Z,27.62
2018-09-01T07:16:35.482Z,27.70
2018-09-01T07:19:04.064Z,27.73
2018-09-01T07:21:32.614Z,27.72
2018-09-01T07:24:01.138Z,27.72
2018-09-01T07:26:29.667Z,27.95
2018-09-01T07:28:58.264Z,28.37
2018-09-01T07:34:11.168Z,28.76
2018-09-01T07:36:39.818Z,28.72
2018-09-01T07:39:08.823Z,28.79
2018-09-01T07:41:37.368Z,28.93
2018-09-01T07:44:06.015Z,29.01
2018-09-01T07:46:34.563Z,29.15
2018-09-01T07:49:03.149Z,29.31
2018-09-01T07:51:31.724Z,29.55
2018-09-01T07:54:00.335Z,29.81
2018-09-01T07:56:28.817Z,29.88
2018-09-01T07:58:57.417Z,30.10
2018-09-01T08:01:25.964Z,30.29
2018-09-01T08:03:54.509Z,30.64
2018-09-01T08:06:23.031Z,30.94
2018-09-01T08:08:51.515Z,31.25
2018-09-01T08:11:20.167Z,31.69
2018-09-01T08:13:48.944Z,32.31
2018-09-01T08:16:17.371Z,32.73
2018-09-01T08:18:45.907Z,33.04
2018-09-01T08:21:14.469Z,33.56
2018-09-01T08:23:43.022Z,34.00
2018-09-01T08:26:11.725Z,34.54
2018-09-01T08:28:40.283Z,34.90
2018-09-01T08:31:08.832Z,35.01
2018-09-01T08:33:37.400Z,35.28
2018-09-01T08:36:06.114Z,35.63
2018-09-01T08:38:34.800Z,35.85
2018-09-01T08:41:03.412Z,36.23
2018-09-01T08:43:32.028Z,36.65
2018-09-01T08:46:00.895Z,36.92
2018-09-01T08:48:29.546Z,37.34
2018-09-01T08:50:58.371Z,37.81
2018-09-01T08:53:26.915Z,37.52
2018-09-01T08:55:55.500Z,38.01
2018-09-01T08:58:24.023Z,38.16
2018-09-01T09:00:52.540Z,38.52
2018-09-01T09:03:21.151Z,38.96
2018-09-01T09:05:49.746Z,39.06
2018-09-01T09:08:18.236Z,39.07
2018-09-01T09:10:46.971Z,39.09
2018-09-01T09:13:15.544Z,39.09
2018-09-01T09:15:44.051Z,39.29
2018-09-01T09:18:18.776Z,39.75
2018-09-01T09:20:53.012Z,40.06
2018-09-01T09:23:21.688Z,40.43
2018-09-01T09:26:00.078Z,40.64
2018-09-01T09:28:29.020Z,41.19
2018-09-01T09:30:57.661Z,41.68
2018-09-01T09:33:26.259Z,41.97
2018-09-01T09:35:54.823Z,42.12
2018-09-01T09:38:23.486Z,41.66
2018-09-01T09:40:52.190Z,40.43
2018-09-01T09:43:20.820Z,39.67
2018-09-01T09:45:50.602Z,39.71
2018-09-01T09:48:19.382Z,40.03
2018-09-01T09:50:47.964Z,39.27
2018-09-01T09:53:16.568Z,37.77
2018-09-01T09:55:45.198Z,37.10
2018-09-01T09:58:13.864Z,36.72
2018-09-01T10:00:47.573Z,36.33
2018-09-01T10:03:16.209Z,35.89
2018-09-01T10:05:44.984Z,36.75
2018-09-01T10:08:13.487Z,36.74
2018-09-01T10:10:42.178Z,36.45
2018-09-01T10:13:10.738Z,37.43
2018-09-01T10:15:39.631Z,38.40
2018-09-01T10:18:08.568Z,37.57
2018-09-01T10:20:37.169Z,36.28
2018-09-01T10:23:05.670Z,35.27
2018-09-01T10:25:34.249Z,36.06
2018-09-01T10:28:02.823Z,36.22
2018-09-01T10:30:31.416Z,36.92
2018-09-01T10:33:00.050Z,37.51
2018-09-01T10:35:28.603Z,38.93
2018-09-01T10:37:57.177Z,40.46
2018-09-01T10:40:25.689Z,41.94
2018-09-01T10:42:54.195Z,42.58
2018-09-01T10:45:22.718Z,41.45
2018-09-01T10:47:51.235Z,39.84
2018-09-01T10:50:19.739Z,38.18
2018-09-01T10:52:48.239Z,37.58
2018-09-01T10:55:16.773Z,39.17
2018-09-01T10:57:45.460Z,41.08
2018-09-01T11:00:14.114Z,42.48
2018-09-01T11:02:42.763Z,43.64
2018-09-01T11:05:11.507Z,42.26
2018-09-01T11:07:39.994Z,40.03
2018-09-01T11:10:08.519Z,39.13
2018-09-01T11:12:37.144Z,40.81
2018-09-01T11:15:05.840Z,42.04
2018-09-01T11:17:34.382Z,42.67
2018-09-01T11:20:03.020Z,43.38
2018-09-01T11:22:31.610Z,43.86
2018-09-01T11:25:00.079Z,44.47
2018-09-01T11:27:28.812Z,44.97
2018-09-01T11:29:57.231Z,45.68
2018-09-01T11:32:26.158Z,46.60
2018-09-01T11:34:54.742Z,45.61
2018-09-01T11:37:23.284Z,43.38
2018-09-01T11:39:51.864Z,41.45
2018-09-01T11:42:20.525Z,39.85
2018-09-01T11:44:49.023Z,38.49
2018-09-01T11:47:17.692Z,37.35
2018-09-01T11:49:46.211Z,36.50
2018-09-01T11:52:15.103Z,35.67
2018-09-01T11:54:43.758Z,35.16
2018-09-01T11:57:12.327Z,35.13
2018-09-01T11:59:41.053Z,35.11
2018-09-01T12:02:09.565Z,34.81
2018-09-01T12:04:38.193Z,34.62
2018-09-01T12:07:06.853Z,34.45
2018-09-01T12:09:35.398Z,33.89
2018-09-01T12:12:03.997Z,33.31
2018-09-01T12:14:32.504Z,32.79
2018-09-01T12:17:01.137Z,32.33
2018-09-01T12:19:29.660Z,32.05
2018-09-01T12:21:58.249Z,31.88
2018-09-01T12:24:26.828Z,31.69
2018-09-01T12:26:55.441Z,31.59
2018-09-01T12:29:23.980Z,31.48
2018-09-01T12:31:52.537Z,31.39
2018-09-01T12:34:21.019Z,31.32
2018-09-01T12:36:49.569Z,31.24
2018-09-01T12:39:18.049Z,30.96
2018-09-01T12:41:46.633Z,30.64
2018-09-01T12:44:15.182Z,30.39
2018-09-01T12:46:43.740Z,30.20
2018-09-01T12:49:15.443Z,30.05
2018-09-01T12:51:44.010Z,29.71
2018-09-01T12:54:12.559Z,29.97
2018-09-01T12:56:41.144Z,29.79
2018-09-01T12:59:09.781Z,29.50
2018-09-01T13:01:38.347Z,29.25
2018-09-01T13:04:06.925Z,29.03
2018-09-01T13:06:35.559Z,28.81
2018-09-01T13:09:05.163Z,28.73
2018-09-01T13:11:33.687Z,28.66
2018-09-01T13:14:02.247Z,28.55
2018-09-01T13:16:30.812Z,28.63
2018-09-01T13:18:59.392Z,28.79
2018-09-01T13:21:27.907Z,29.05
2018-09-01T13:23:56.450Z,29.18
2018-09-01T13:26:24.950Z,29.41
2018-09-01T13:28:53.459Z,29.45
2018-09-01T13:31:21.976Z,29.33
2018-09-01T13:33:50.515Z,29.17
2018-09-01T13:36:19.146Z,29.00
2018-09-01T13:38:47.751Z,28.88
2018-09-01T13:41:16.239Z,28.85
2018-09-01T13:43:44.937Z,28.74
2018-09-01T13:46:13.612Z,28.77
2018-09-01T13:48:42.181Z,28.81
2018-09-01T13:51:10.679Z,28.64
2018-09-01T13:53:39.300Z,28.47
2018-09-01T13:56:07.930Z,28.21
2018-09-01T13:58:36.531Z,27.97
2018-09-01T14:01:05.238Z,27.68
2018-09-01T14:03:33.791Z,27.60
2018-09-01T14:06:02.319Z,27.54
2018-09-01T14:08:30.902Z,27.49
2018-09-01T14:10:59.392Z,27.46
2018-09-01T14:13:27.993Z,27.37
2018-09-01T14:15:56.574Z,27.42
2018-09-01T14:18:25.059Z,27.50
2018-09-01T14:20:53.597Z,27.50
2018-09-01T14:23:22.120Z,27.54
2018-09-01T14:25:50.687Z,27.51
2018-09-01T14:28:19.240Z,27.52
2018-09-01T14:30:47.779Z,27.51
2018-09-01T14:33:16.327Z,27.55
2018-09-01T14:35:44.914Z,27.54
2018-09-01T14:38:13.425Z,27.61
2018-09-01T14:40:42.026Z,27.69
2018-09-01T14:43:10.516Z,27.73
2018-09-01T14:45:39.156Z,27.71
2018-09-01T14:48:07.708Z,27.64
2018-09-01T14:50:36.309Z,27.49
2018-09-01T14:53:04.814Z,27.42
2018-09-01T14:55:33.366Z,27.40
2018-09-01T14:58:01.888Z,27.37
2018-09-01T15:00:30.460Z,27.27
2018-09-01T15:02:58.927Z,27.13
2018-09-01T15:05:27.459Z,26.97
2018-09-01T15:07:55.970Z,26.85
2018-09-01T15:10:24.515Z,26.82
2018-09-01T15:12:53.002Z,26.95
2018-09-01T15:15:21.571Z,27.08
2018-09-01T15:17:50.047Z,27.20
2018-09-01T15:20:18.604Z,27.23
2018-09-01T15:22:47.109Z,27.16
2018-09-01T15:25:15.683Z,27.12
2018-09-01T15:27:44.257Z,27.04
2018-09-01T15:30:12.870Z,27.05
2018-09-01T15:32:41.466Z,27.06
2018-09-01T15:35:09.905Z,27.03
2018-09-01T15:37:38.464Z,26.95
2018-09-01T15:40:07.038Z,26.85
2018-09-01T15:42:35.533Z,26.54
2018-09-01T15:45:04.202Z,26.54
2018-09-01T15:47:32.822Z,26.54
2018-09-01T15:50:01.371Z,26.56
2018-09-01T15:52:29.837Z,26.49
2018-09-01T15:54:58.325Z,26.45
2018-09-01T15:57:26.853Z,26.36
2018-09-01T15:59:55.487Z,26.26
2018-09-01T16:02:23.996Z,26.17
2018-09-01T16:04:52.739Z,26.06
2018-09-01T16:07:21.246Z,25.96
2018-09-01T16:09:49.827Z,25.87
2018-09-01T16:12:18.316Z,25.85
2018-09-01T16:14:46.951Z,25.77
2018-09-01T16:17:15.539Z,25.75
2018-09-01T16:19:44.136Z,25.70
2018-09-01T16:22:12.691Z,25.62
2018-09-01T16:24:41.366Z,25.52
2018-09-01T16:27:09.902Z,25.46
2018-09-01T16:29:38.456Z,25.36
2018-09-01T16:32:07.178Z,25.30
2018-09-01T16:34:35.952Z,25.09
2018-09-01T16:37:04.467Z,25.19
2018-09-01T16:39:33.052Z,25.13
2018-09-01T16:42:01.579Z,25.09
2018-09-01T16:44:30.112Z,25.04
2018-09-01T16:46:58.648Z,25.05
2018-09-01T16:49:27.128Z,25.04
2018-09-01T16:51:55.705Z,25.01
2018-09-01T16:54:24.346Z,25.02
2018-09-01T16:56:52.913Z,25.05
2018-09-01T16:59:21.497Z,25.06
2018-09-01T17:01:50.115Z,25.07
2018-09-01T17:04:18.574Z,25.06
2018-09-01T17:06:47.089Z,25.00
2018-09-01T17:09:15.664Z,24.91
2018-09-01T17:11:44.235Z,24.82
2018-09-01T17:14:12.740Z,24.73
2018-09-01T17:16:41.365Z,24.61
2018-09-01T17:19:09.910Z,24.50
2018-09-01T17:21:38.491Z,24.43
2018-09-01T17:24:06.980Z,24.34
2018-09-01T17:26:35.642Z,24.24
2018-09-01T17:29:04.209Z,24.18
2018-09-01T17:31:32.728Z,24.10
2018-09-01T17:34:01.329Z,24.05
2018-09-01T17:36:29.859Z,23.99
2018-09-01T17:38:58.419Z,23.92
2018-09-01T17:41:27.044Z,23.84
2018-09-01T17:44:00.659Z,23.81
2018-09-01T17:46:29.185Z,23.77
2018-09-01T17:48:57.788Z,23.70
2018-09-01T17:51:26.581Z,23.65
2018-09-01T17:53:55.108Z,23.58
2018-09-01T17:56:23.938Z,23.52
2018-09-01T17:58:52.900Z,23.46
2018-09-01T18:01:22.953Z,23.38
2018-09-01T18:03:51.497Z,23.32
2018-09-01T18:06:19.995Z,23.25
2018-09-01T18:08:48.472Z,23.17
2018-09-01T18:11:17.091Z,23.10
2018-09-01T18:13:45.561Z,23.02
2018-09-01T18:16:14.171Z,22.95
2018-09-01T18:18:42.662Z,22.64
2018-09-01T18:21:11.232Z,22.81
2018-09-01T18:23:39.842Z,22.74
2018-09-01T18:26:08.359Z,22.68
2018-09-01T18:28:36.834Z,22.60
2018-09-01T18:31:05.432Z,22.52
2018-09-01T18:33:33.951Z,22.43
2018-09-01T18:36:02.528Z,22.35
2018-09-01T18:38:31.088Z,22.24
2018-09-01T18:40:59.729Z,22.15
2018-09-01T18:43:28.287Z,22.07
2018-09-01T18:45:56.847Z,21.97
2018-09-01T18:48:25.349Z,21.89
2018-09-01T18:50:53.848Z,21.81
2018-09-01T18:53:22.395Z,21.73
2018-09-01T18:55:50.901Z,21.64
2018-09-01T18:58:19.396Z,21.55
2018-09-01T19:00:47.946Z,21.47
2018-09-01T19:03:16.484Z,21.40
2018-09-01T19:05:44.946Z,21.32
2018-09-01T19:08:13.498Z,21.22
2018-09-01T19:10:42.104Z,21.16
2018-09-01T19:13:10.710Z,21.11
2018-09-01T19:15:39.247Z,21.05
2018-09-01T19:18:07.788Z,20.99
2018-09-01T19:20:36.396Z,20.89
2018-09-01T19:23:05.023Z,20.78
2018-09-01T19:25:33.642Z,20.72
2018-09-01T19:28:02.291Z,20.62
2018-09-01T19:30:31.070Z,20.56
2018-09-01T19:32:59.704Z,20.50
2018-09-01T19:35:28.268Z,20.45
2018-09-01T19:37:56.854Z,20.42
2018-09-01T19:40:25.621Z,20.37
2018-09-01T19:42:54.182Z,20.34
2018-09-01T19:45:22.968Z,20.28
2018-09-01T19:47:51.497Z,20.20
2018-09-01T19:50:20.125Z,20.15
2018-09-01T19:52:48.836Z,20.12
2018-09-01T19:55:17.434Z,20.07
2018-09-01T19:57:46.077Z,20.04
2018-09-01T20:00:24.427Z,20.01
2018-09-01T20:02:53.111Z,19.97
2018-09-01T20:05:21.732Z,19.90
2018-09-01T20:07:50.186Z,19.85
2018-09-01T20:10:18.817Z,19.81
2018-09-01T20:12:47.455Z,19.78
2018-09-01T20:15:16.020Z,19.75
2018-09-01T20:17:44.921Z,19.67
2018-09-01T20:20:13.527Z,19.65
2018-09-01T20:22:42.180Z,19.60
2018-09-01T20:25:12.781Z,19.54
2018-09-01T20:30:29.404Z,19.50
2018-09-01T20:32:57.996Z,19.47
2018-09-01T20:35:31.732Z,19.45
2018-09-01T20:38:01.358Z,19.41
2018-09-01T20:40:29.834Z,19.39
2018-09-01T20:42:58.329Z,19.37
2018-09-01T20:45:28.029Z,19.34
2018-09-01T20:47:56.625Z,19.30
2018-09-01T20:50:25.181Z,19.26
2018-09-01T20:52:53.733Z,19.22
2018-09-01T20:55:22.330Z,19.17
2018-09-01T20:57:50.979Z,19.09
2018-09-01T21:00:19.491Z,19.04
2018-09-01T21:02:48.124Z,19.00
2018-09-01T21:05:16.814Z,18.98
2018-09-01T21:07:45.459Z,18.96
2018-09-01T21:10:14.025Z,18.94
2018-09-01T21:12:42.618Z,18.92
2018-09-01T21:15:11.194Z,18.87
2018-09-01T21:17:39.746Z,18.84
2018-09-01T21:20:08.422Z,18.81
2018-09-01T21:22:36.906Z,18.76
2018-09-01T21:25:05.567Z,18.73
2018-09-01T21:27:34.057Z,18.72
2018-09-01T21:30:02.599Z,18.70
2018-09-01T21:32:31.165Z,18.69
2018-09-01T21:34:59.714Z,18.64
2018-09-01T21:37:33.286Z,18.63
2018-09-01T21:40:02.130Z,18.58
2018-09-01T21:42:31.230Z,18.56
2018-09-01T21:45:00.499Z,18.53
2018-09-01T22:32:27.614Z,17.94
2018-09-01T22:34:56.137Z,17.88
2018-09-01T22:37:24.746Z,17.84
2018-09-01T22:39:53.265Z,17.81
2018-09-01T22:42:21.895Z,17.80
2018-09-01T22:44:50.594Z,17.79
2018-09-01T22:47:27.637Z,17.75
2018-09-01T22:49:56.262Z,17.74
2018-09-01T22:52:25.121Z,17.73
2018-09-01T22:54:53.877Z,17.72
2018-09-01T22:57:22.501Z,17.72
2018-09-01T22:59:51.184Z,17.72
2018-09-01T23:02:19.874Z,17.69
2018-09-01T23:04:48.388Z,17.66
2018-09-01T23:07:16.942Z,17.64
2018-09-01T23:09:45.567Z,17.62
2018-09-01T23:12:14.206Z,17.59
2018-09-01T23:14:43.104Z,17.57
2018-09-01T23:17:11.846Z,17.55
2018-09-01T23:19:40.629Z,17.54
2018-09-01T23:22:09.516Z,17.53
2018-09-01T23:24:38.253Z,17.52
2018-09-01T23:27:07.066Z,17.49
2018-09-01T23:29:35.958Z,17.47
2018-09-01T23:32:04.528Z,17.46
2018-09-01T23:34:33.324Z,17.45
2018-09-01T23:37:01.960Z,17.43
2018-09-01T23:39:30.773Z,17.41
2018-09-01T23:41:59.856Z,17.41
2018-09-01T23:44:28.659Z,17.40
2018-09-01T23:46:57.613Z,17.39
2018-09-01T23:49:26.344Z,17.38
2018-09-01T23:51:55.023Z,17.38
2018-09-01T23:54:24.929Z,17.37
2018-09-01T23:56:53.663Z,17.37
2018-09-01T23:59:22.382Z,17.37
